Time;durP1;ratioP1;P1;durP2;ratioP2;P2;SDS_P1;SDS_P2;PMS_P1;PMS_P2;Temp;Humidity;BMP_temperature;BMP_pressure;BME280_temperature;BME280_humidity;BME280_pressure;Samples;Min_cycle;Max_cycle;Signal;HPM_P1;HPM_P2
2021/12/30 00:00:19;;;;;;;6.38;3.42;;;;;;;4.41;90.60;94034.59;5013153;28;20212;-74
2021/12/30 00:02:46;;;;;;;9.65;2.28;;;;;;;4.43;90.99;94037.78;5012389;28;20228;-73
2021/12/30 00:05:15;;;;;;;4.07;2.47;;;;;;;4.36;90.71;94042.78;5012495;28;20259;-74
2021/12/30 00:07:42;;;;;;;4.75;2.72;;;;;;;4.33;90.48;94043.38;5012260;28;20236;-73
2021/12/30 00:10:11;;;;;;;3.97;2.88;;;;;;;4.38;90.39;94046.72;5012208;28;20205;-73
2021/12/30 00:12:38;;;;;;;4.20;1.70;;;;;;;4.43;90.24;94037.78;5012108;28;20224;-74
2021/12/30 00:15:07;;;;;;;3.45;2.08;;;;;;;4.44;89.78;94039.38;5012411;28;20209;-74
2021/12/30 00:17:34;;;;;;;2.88;1.95;;;;;;;4.38;89.46;94029.84;5012381;28;20209;-74
2021/12/30 00:20:02;;;;;;;3.92;2.08;;;;;;;4.43;89.77;94032.41;5012381;28;20316;-74
2021/12/30 00:22:30;;;;;;;2.80;1.90;;;;;;;4.40;89.88;94038.38;5011710;28;20713;-74
2021/12/30 00:24:57;;;;;;;1.75;1.63;;;;;;;4.37;89.62;94033.66;5011885;28;20201;-74
2021/12/30 00:27:24;;;;;;;2.88;2.08;;;;;;;4.42;89.32;94044.22;5010626;28;20550;-74
2021/12/30 00:29:51;;;;;;;3.97;2.42;;;;;;;4.42;89.54;94046.91;5011875;28;20200;-74
2021/12/30 00:32:18;;;;;;;4.20;2.65;;;;;;;4.46;89.91;94050.59;5012421;28;20209;-74
2021/12/30 00:34:45;;;;;;;4.97;2.55;;;;;;;4.45;89.88;94057.03;5011402;28;20225;-73
2021/12/30 00:37:12;;;;;;;2.97;2.15;;;;;;;4.43;90.02;94049.28;5011908;28;20229;-75
2021/12/30 00:39:40;;;;;;;3.05;2.10;;;;;;;4.44;90.11;94056.25;5011722;28;20205;-72
2021/12/30 00:42:08;;;;;;;3.58;2.10;;;;;;;4.42;90.00;94054.97;5011524;28;20237;-73
2021/12/30 00:44:35;;;;;;;2.72;1.70;;;;;;;4.44;90.03;94058.13;5011474;28;20200;-73
2021/12/30 00:47:03;;;;;;;2.83;1.88;;;;;;;4.44;89.96;94055.44;5012000;28;20201;-73
2021/12/30 00:49:29;;;;;;;4.13;2.15;;;;;;;4.38;90.00;94062.00;5011448;28;20228;-74
2021/12/30 00:51:57;;;;;;;2.50;1.55;;;;;;;4.40;89.88;94059.81;5011732;28;20232;-73
2021/12/30 00:54:23;;;;;;;2.35;1.75;;;;;;;4.39;89.61;94060.91;5011088;28;20252;-74
2021/12/30 00:56:52;;;;;;;3.30;1.58;;;;;;;4.37;89.31;94055.09;5011596;28;20224;-73
2021/12/30 00:59:19;;;;;;;4.03;1.83;;;;;;;4.35;89.63;94057.28;5011573;28;20197;-73
2021/12/30 01:01:46;;;;;;;4.18;2.15;;;;;;;4.42;89.33;94065.69;5011288;28;20675;-73
2021/12/30 01:04:13;;;;;;;2.05;1.13;;;;;;;4.41;89.49;94072.13;5010646;28;20267;-75
2021/12/30 01:06:40;;;;;;;1.95;1.52;;;;;;;4.42;89.30;94060.31;5011345;28;20212;-75
2021/12/30 01:09:07;;;;;;;1.75;1.38;;;;;;;4.41;89.15;94067.56;5011181;28;20205;-74
2021/12/30 01:11:34;;;;;;;1.50;1.30;;;;;;;4.44;88.66;94083.06;5010992;28;20217;-75
2021/12/30 01:14:09;;;;;;;2.03;1.48;;;;;;;4.46;89.02;94064.78;5010374;28;20228;-74
2021/12/30 01:16:42;;;;;;;2.58;1.60;;;;;;;4.45;89.05;94073.13;5011265;28;20247;-74
2021/12/30 01:19:23;;;;;;;2.67;2.15;;;;;;;4.42;88.90;94074.53;5010734;28;20750;-73
2021/12/30 01:21:52;;;;;;;1.92;1.23;;;;;;;4.41;88.59;94074.81;5010724;28;20200;-74
2021/12/30 01:24:19;;;;;;;2.65;1.50;;;;;;;4.42;88.76;94068.38;5010557;28;20810;-74
2021/12/30 01:26:47;;;;;;;2.15;1.40;;;;;;;4.45;88.24;94078.50;5011128;28;20205;-76
2021/12/30 01:29:15;;;;;;;2.78;2.00;;;;;;;4.44;88.99;94082.25;5010764;28;20209;-74
2021/12/30 01:31:42;;;;;;;3.17;1.60;;;;;;;4.48;89.07;94091.31;5010411;28;20205;-74
2021/12/30 01:34:09;;;;;;;2.00;1.05;;;;;;;4.50;88.60;94089.13;5009997;28;20221;-73
2021/12/30 01:36:36;;;;;;;1.25;1.15;;;;;;;4.52;88.57;94089.59;5010241;28;20197;-74
2021/12/30 01:39:03;;;;;;;1.52;1.42;;;;;;;4.47;88.56;94092.41;5010319;28;20212;-74
2021/12/30 01:41:30;;;;;;;1.27;1.17;;;;;;;4.45;88.49;94078.50;5010356;28;20248;-75
2021/12/30 01:43:57;;;;;;;2.35;1.50;;;;;;;4.46;88.92;94085.44;5009757;28;20292;-74
2021/12/30 01:46:26;;;;;;;1.92;1.23;;;;;;;4.48;88.95;94080.56;5010869;28;20278;-74
2021/12/30 01:48:53;;;;;;;1.58;1.13;;;;;;;4.47;88.58;94077.09;5010333;28;20228;-74
2021/12/30 01:51:19;;;;;;;2.60;1.58;;;;;;;4.46;88.32;94080.06;5010793;28;20626;-74
2021/12/30 01:53:46;;;;;;;1.98;1.30;;;;;;;4.46;88.21;94080.06;5010537;28;20205;-74
2021/12/30 01:56:13;;;;;;;2.05;1.48;;;;;;;4.46;88.77;94078.19;5010302;28;20201;-74
2021/12/30 01:58:40;;;;;;;1.48;1.25;;;;;;;4.47;88.96;94081.66;5010282;28;20197;-74
2021/12/30 02:01:07;;;;;;;1.27;1.17;;;;;;;4.51;88.14;94082.66;5010306;28;20506;-74
2021/12/30 02:03:36;;;;;;;3.30;1.75;;;;;;;4.54;88.27;94092.75;5010204;28;20398;-75
2021/12/30 02:06:02;;;;;;;1.65;1.20;;;;;;;4.51;88.25;94093.38;5010519;28;20216;-75
2021/12/30 02:08:30;;;;;;;0.82;0.68;;;;;;;4.53;87.94;94091.97;5009972;28;20220;-76
2021/12/30 02:10:57;;;;;;;1.67;1.23;;;;;;;4.52;88.17;94078.84;5009740;28;20205;-75
2021/12/30 02:13:23;;;;;;;1.00;0.90;;;;;;;4.49;88.30;94090.22;5009621;28;20212;-75
2021/12/30 02:15:51;;;;;;;3.55;1.10;;;;;;;4.50;88.14;94091.78;5009855;28;20232;-74
2021/12/30 02:18:19;;;;;;;1.02;0.90;;;;;;;4.51;88.29;94093.38;5009861;28;20889;-73
2021/12/30 02:20:51;;;;;;;2.33;1.10;;;;;;;4.48;88.11;94099.34;5009999;28;20231;-74
2021/12/30 02:23:20;;;;;;;2.15;1.17;;;;;;;4.48;88.07;94093.97;5009489;28;20216;-75
2021/12/30 02:25:48;;;;;;;2.30;1.38;;;;;;;4.46;88.16;94105.00;5009154;28;20208;-75
2021/12/30 02:28:17;;;;;;;2.20;1.20;;;;;;;4.47;88.43;94103.13;5009565;28;20213;-75
2021/12/30 02:30:45;;;;;;;1.85;1.17;;;;;;;4.46;88.55;94102.31;5009636;28;20691;-75
2021/12/30 02:33:14;;;;;;;1.42;1.15;;;;;;;4.49;88.55;94106.28;5009768;28;20608;-74
2021/12/30 02:35:41;;;;;;;2.25;1.35;;;;;;;4.44;89.35;94103.72;5009169;28;20656;-74
2021/12/30 02:38:09;;;;;;;1.52;1.17;;;;;;;4.46;88.60;94096.97;5008634;28;20591;-74
2021/12/30 02:40:38;;;;;;;2.05;1.00;;;;;;;4.50;88.41;94107.88;5009312;28;20197;-75
2021/12/30 02:43:07;;;;;;;2.97;1.40;;;;;;;4.44;88.60;94114.44;5009703;28;20213;-75
2021/12/30 02:45:34;;;;;;;1.40;1.20;;;;;;;4.50;88.61;94113.25;5009146;28;20201;-75
2021/12/30 02:48:01;;;;;;;1.80;1.25;;;;;;;4.46;88.69;94122.97;5009313;28;20205;-75
2021/12/30 02:50:29;;;;;;;2.00;1.25;;;;;;;4.45;88.92;94124.88;5009121;28;20589;-75
2021/12/30 02:52:56;;;;;;;2.55;1.50;;;;;;;4.39;89.04;94126.06;5009246;28;20201;-75
2021/12/30 02:55:24;;;;;;;2.17;1.40;;;;;;;4.39;89.12;94126.06;5009337;28;20517;-75
2021/12/30 02:57:51;;;;;;;2.05;1.42;;;;;;;4.45;88.76;94137.47;5009298;28;20628;-75
2021/12/30 03:00:18;;;;;;;1.45;1.20;;;;;;;4.40;88.82;94118.81;5009134;28;20212;-76
2021/12/30 03:02:45;;;;;;;2.35;1.38;;;;;;;4.37;89.21;94130.16;5009730;28;20204;-75
2021/12/30 03:05:18;;;;;;;2.42;1.05;;;;;;;4.39;88.96;94139.47;5009033;28;20204;-75
2021/12/30 03:07:45;;;;;;;2.63;1.63;;;;;;;4.46;88.89;94145.22;5009586;28;20836;-75
2021/12/30 03:10:17;;;;;;;3.50;1.63;;;;;;;4.43;88.77;94139.66;5009133;28;20224;-75
2021/12/30 03:12:51;;;;;;;2.35;1.65;;;;;;;4.44;89.00;94141.25;5009363;28;20637;-75
2021/12/30 03:15:18;;;;;;;1.77;1.48;;;;;;;4.42;89.11;94138.88;5008960;28;20610;-75
2021/12/30 03:17:45;;;;;;;1.92;1.25;;;;;;;4.41;88.55;94139.97;5008848;28;20208;-76
2021/12/30 03:20:12;;;;;;;2.05;1.52;;;;;;;4.44;88.90;94151.97;5008904;28;20225;-75
2021/12/30 03:22:41;;;;;;;1.60;1.40;;;;;;;4.44;88.78;94151.97;5009684;28;20197;-75
2021/12/30 03:25:10;;;;;;;2.42;1.65;;;;;;;4.41;89.04;94157.94;5008886;28;20352;-75
2021/12/30 03:27:37;;;;;;;1.88;1.27;;;;;;;4.41;89.03;94158.72;5009676;28;20208;-76
2021/12/30 03:30:09;;;;;;;1.75;1.17;;;;;;;4.41;88.85;94157.94;5009195;28;20208;-76
2021/12/30 03:32:36;;;;;;;2.65;1.77;;;;;;;4.47;88.88;94167.47;5009252;28;20221;-76
2021/12/30 03:35:04;;;;;;;1.83;1.48;;;;;;;4.45;88.85;94158.94;5009202;28;20224;-75
2021/12/30 03:37:31;;;;;;;1.75;1.55;;;;;;;4.54;88.62;94162.47;5009230;28;20291;-75
2021/12/30 03:39:58;;;;;;;3.28;2.10;;;;;;;4.49;88.54;94170.66;5008417;28;20211;-75
2021/12/30 03:42:25;;;;;;;2.63;1.25;;;;;;;4.53;88.64;94160.91;5008825;28;20225;-75
2021/12/30 03:44:56;;;;;;;1.73;1.38;;;;;;;4.50;88.37;94172.25;5009121;28;20228;-75
2021/12/30 03:47:25;;;;;;;3.85;2.22;;;;;;;4.48;88.53;94174.44;5009541;28;20220;-75
2021/12/30 03:49:52;;;;;;;2.63;1.80;;;;;;;4.43;88.81;94161.13;5008626;28;20290;-76
2021/12/30 03:52:25;;;;;;;3.30;2.17;;;;;;;4.46;88.68;94160.53;5009040;28;20642;-75
2021/12/30 03:54:52;;;;;;;2.92;1.92;;;;;;;4.36;88.74;94155.38;5008829;28;20221;-75
2021/12/30 03:57:19;;;;;;;2.63;1.33;;;;;;;4.45;88.76;94175.03;5009419;28;20241;-75
2021/12/30 03:59:46;;;;;;;4.30;1.90;;;;;;;4.49;88.78;94178.69;5008680;28;20201;-74
2021/12/30 04:02:13;;;;;;;1.77;1.27;;;;;;;4.49;88.75;94170.66;5009519;28;20255;-75
2021/12/30 04:04:41;;;;;;;3.15;2.33;;;;;;;4.45;88.78;94181.19;5012033;28;20240;-75
2021/12/30 04:07:08;;;;;;;2.28;1.67;;;;;;;4.47;88.74;94200.44;5012443;28;20687;-75
2021/12/30 04:09:36;;;;;;;2.45;1.80;;;;;;;4.49;88.98;94202.84;5012292;28;20212;-76
2021/12/30 04:12:04;;;;;;;2.50;1.90;;;;;;;4.47;88.85;94199.66;5012152;28;20228;-75
2021/12/30 04:14:31;;;;;;;2.38;2.00;;;;;;;4.49;89.35;94202.84;5011565;28;20213;-74
2021/12/30 04:16:58;;;;;;;4.88;2.50;;;;;;;4.50;88.76;94205.22;5012333;28;20228;-74
2021/12/30 04:19:25;;;;;;;2.72;1.35;;;;;;;4.52;88.74;94210.25;5011941;28;20317;-75
2021/12/30 04:21:56;;;;;;;3.45;1.90;;;;;;;4.48;88.68;94218.13;5011979;28;20816;-74
2021/12/30 04:24:23;;;;;;;1.75;1.52;;;;;;;4.42;88.76;94230.03;5012083;28;20759;-74
2021/12/30 04:26:50;;;;;;;4.80;2.60;;;;;;;4.38;89.23;94217.50;5012364;28;20243;-73
2021/12/30 04:29:18;;;;;;;3.28;1.92;;;;;;;4.43;89.14;94228.16;5012222;28;20232;-75
2021/12/30 04:31:45;;;;;;;3.45;2.20;;;;;;;4.38;89.34;94244.31;5012171;28;20232;-74
2021/12/30 04:34:12;;;;;;;3.67;1.90;;;;;;;4.37;89.08;94248.13;5013607;28;20256;-74
2021/12/30 04:36:39;;;;;;;3.38;2.30;;;;;;;4.38;89.61;94241.66;5013674;28;20205;-73
2021/12/30 04:39:08;;;;;;;3.10;2.10;;;;;;;4.39;89.61;94251.28;5012902;28;20216;-74
2021/12/30 04:41:35;;;;;;;1.95;1.73;;;;;;;4.34;89.72;94243.34;5012613;28;20314;-74
2021/12/30 04:44:02;;;;;;;2.80;2.28;;;;;;;4.34;89.95;94249.50;5011459;28;20228;-74
2021/12/30 04:46:29;;;;;;;5.03;2.60;;;;;;;4.37;89.75;94256.19;5011253;28;20205;-74
2021/12/30 04:48:56;;;;;;;3.33;2.10;;;;;;;4.35;89.81;94258.34;5011182;28;20672;-74
2021/12/30 04:51:23;;;;;;;2.50;1.77;;;;;;;4.32;89.72;94266.97;5011245;28;20228;-74
2021/12/30 04:53:49;;;;;;;2.53;2.10;;;;;;;4.34;89.71;94262.13;5011583;28;20208;-74
2021/12/30 04:56:19;;;;;;;1.75;1.48;;;;;;;4.36;89.52;94268.00;5011323;28;20209;-75
2021/12/30 04:58:46;;;;;;;3.47;2.50;;;;;;;4.27;89.48;94270.53;5011355;28;20208;-75
2021/12/30 05:01:13;;;;;;;3.80;2.35;;;;;;;4.26;89.47;94271.63;5011123;28;20209;-75
2021/12/30 05:03:39;;;;;;;3.60;1.75;;;;;;;4.31;89.34;94281.47;5010562;28;20683;-74
2021/12/30 05:06:06;;;;;;;3.22;2.08;;;;;;;4.28;89.16;94277.50;5010798;28;20564;-75
2021/12/30 05:08:33;;;;;;;2.92;1.70;;;;;;;4.22;89.28;94274.13;5011203;28;20219;-74
2021/12/30 05:11:01;;;;;;;3.33;2.08;;;;;;;4.17;89.54;94276.91;5011132;28;20197;-75
2021/12/30 05:13:29;;;;;;;3.42;1.50;;;;;;;4.24;89.27;94284.53;5010065;28;20683;-75
2021/12/30 05:15:56;;;;;;;3.33;2.15;;;;;;;4.22;88.88;94282.19;5010825;28;20368;-76
2021/12/30 05:18:30;;;;;;;2.00;1.50;;;;;;;4.23;88.79;94289.13;5010681;28;20225;-75
2021/12/30 05:20:58;;;;;;;4.05;1.95;;;;;;;4.23;88.80;94294.50;5010965;28;20193;-75
2021/12/30 05:23:25;;;;;;;2.85;2.20;;;;;;;4.16;88.75;94296.75;5010717;28;20207;-74
2021/12/30 05:25:52;;;;;;;3.10;1.90;;;;;;;4.11;88.99;94294.16;5010755;28;20232;-75
2021/12/30 05:28:19;;;;;;;5.18;2.63;;;;;;;4.18;88.97;94313.34;5010548;28;20291;-75
2021/12/30 05:30:47;;;;;;;2.25;1.80;;;;;;;4.11;88.92;94314.78;5011027;28;20200;-75
2021/12/30 05:33:15;;;;;;;3.60;1.95;;;;;;;4.11;89.29;94326.31;5010913;28;20212;-75
2021/12/30 05:35:42;;;;;;;4.93;2.22;;;;;;;4.12;88.93;94327.91;5010754;28;20189;-75
2021/12/30 05:38:09;;;;;;;2.75;2.45;;;;;;;4.11;88.65;94330.88;5011013;28;20220;-75
2021/12/30 05:40:37;;;;;;;2.90;1.85;;;;;;;4.07;89.21;94329.88;5010663;28;20208;-75
2021/12/30 05:43:04;;;;;;;4.18;2.20;;;;;;;4.06;89.38;94336.34;5010863;28;20186;-75
2021/12/30 05:45:31;;;;;;;2.72;1.95;;;;;;;4.26;89.13;94341.34;5010478;28;20225;-75
2021/12/30 05:47:59;;;;;;;3.95;2.53;;;;;;;4.17;88.81;94349.25;5011086;28;20197;-75
2021/12/30 05:50:30;;;;;;;2.63;1.73;;;;;;;4.19;88.30;94349.78;5011204;28;20256;-74
2021/12/30 05:52:58;;;;;;;3.63;2.50;;;;;;;4.12;88.76;94343.97;5010387;28;20197;-74
2021/12/30 05:55:25;;;;;;;5.40;2.40;;;;;;;4.15;88.75;94348.75;5010337;28;20258;-74
2021/12/30 05:57:54;;;;;;;4.18;2.55;;;;;;;4.12;88.73;94349.34;5010219;28;20224;-75
2021/12/30 06:00:23;;;;;;;2.55;2.00;;;;;;;4.14;88.81;94352.53;5010233;28;20497;-75
2021/12/30 06:02:50;;;;;;;10.48;4.60;;;;;;;4.12;88.45;94365.41;5009876;28;20545;-75
2021/12/30 06:05:19;;;;;;;3.78;2.55;;;;;;;3.96;88.08;94372.13;5010204;28;20236;-75
2021/12/30 06:07:46;;;;;;;3.85;2.35;;;;;;;3.87;86.83;94371.19;5010357;28;20267;-74
2021/12/30 06:10:13;;;;;;;1.55;1.38;;;;;;;3.83;86.86;94372.84;5010307;28;20247;-74
2021/12/30 06:12:42;;;;;;;3.03;1.92;;;;;;;3.78;86.90;94375.63;5011429;28;20668;-75
2021/12/30 06:15:11;;;;;;;3.53;2.08;;;;;;;3.76;87.15;94383.16;5011492;28;20197;-74
2021/12/30 06:17:38;;;;;;;2.53;1.80;;;;;;;3.69;86.86;94385.41;5011289;28;20209;-75
2021/12/30 06:20:08;;;;;;;2.65;1.27;;;;;;;3.68;86.82;94397.22;5010313;28;20225;-75
2021/12/30 06:22:37;;;;;;;3.03;1.50;;;;;;;3.71;86.81;94401.97;5009745;28;20197;-74
2021/12/30 06:25:05;;;;;;;1.90;1.58;;;;;;;3.75;86.49;94409.13;5009286;28;20231;-74
2021/12/30 06:27:32;;;;;;;2.20;1.42;;;;;;;3.73;85.64;94421.22;5009527;28;20568;-73
2021/12/30 06:30:00;;;;;;;1.55;1.13;;;;;;;3.69;85.63;94430.94;5009735;28;20201;-74
2021/12/30 06:32:27;;;;;;;2.75;1.58;;;;;;;3.69;85.68;94429.03;5009985;28;20220;-74
2021/12/30 06:34:54;;;;;;;3.05;1.67;;;;;;;3.62;85.87;94435.84;5009367;28;20229;-75
2021/12/30 06:37:21;;;;;;;4.22;1.42;;;;;;;3.62;85.42;94435.84;5009719;28;20205;-75
2021/12/30 06:39:49;;;;;;;3.08;1.42;;;;;;;3.57;85.18;94444.72;5009977;28;20232;-75
2021/12/30 06:42:16;;;;;;;1.17;1.05;;;;;;;3.54;85.39;94446.13;5009363;28;20229;-75
2021/12/30 06:44:43;;;;;;;1.13;0.88;;;;;;;3.51;85.06;94452.06;5009260;28;20232;-75
2021/12/30 06:47:10;;;;;;;1.33;0.95;;;;;;;3.56;84.33;94457.31;5009164;28;20489;-75
2021/12/30 06:49:37;;;;;;;1.50;1.27;;;;;;;3.49;83.81;94461.44;5009183;28;20465;-75
2021/12/30 06:52:05;;;;;;;2.38;1.55;;;;;;;3.39;83.54;94465.06;5009101;28;20209;-75
2021/12/30 06:54:33;;;;;;;0.93;0.68;;;;;;;3.42;83.42;94469.81;5008805;28;20216;-75
2021/12/30 06:57:02;;;;;;;1.85;1.17;;;;;;;3.47;83.18;94472.44;5009567;28;20205;-75
2021/12/30 06:59:30;;;;;;;1.88;1.05;;;;;;;3.51;83.78;94473.47;5009847;28;20205;-74
2021/12/30 07:01:57;;;;;;;1.88;1.10;;;;;;;3.55;82.74;94482.50;5009264;28;20212;-74
2021/12/30 07:04:25;;;;;;;2.13;1.00;;;;;;;3.50;83.15;94487.16;5009415;28;20615;-74
2021/12/30 07:06:52;;;;;;;1.90;1.00;;;;;;;3.52;83.24;94480.44;5009197;28;20292;-75
2021/12/30 07:09:19;;;;;;;1.13;1.00;;;;;;;3.62;82.56;94500.91;5009788;28;20205;-75
2021/12/30 07:11:48;;;;;;;0.90;0.80;;;;;;;3.48;82.76;94495.47;5009133;28;20205;-74
2021/12/30 07:14:17;;;;;;;2.80;1.05;;;;;;;3.51;82.72;94510.16;5009003;28;20201;-75
2021/12/30 07:16:44;;;;;;;1.63;0.80;;;;;;;3.44;82.29;94521.19;5009341;28;20205;-75
2021/12/30 07:19:11;;;;;;;2.28;1.17;;;;;;;3.47;82.12;94520.63;5008884;28;20633;-75
2021/12/30 07:21:37;;;;;;;0.47;0.45;;;;;;;3.47;82.36;94517.97;5009137;28;20255;-74
2021/12/30 07:24:05;;;;;;;3.75;1.20;;;;;;;3.52;82.61;94533.19;5008898;28;20731;-75
2021/12/30 07:26:32;;;;;;;2.03;1.10;;;;;;;3.49;82.08;94534.53;5008517;28;20608;-74
2021/12/30 07:28:59;;;;;;;1.75;1.00;;;;;;;3.46;82.55;94540.47;5008686;28;20221;-75
2021/12/30 07:31:28;;;;;;;3.35;1.40;;;;;;;3.57;82.74;94536.59;5008765;28;20284;-75
2021/12/30 07:33:55;;;;;;;2.30;1.30;;;;;;;3.71;82.70;94543.91;5008233;28;20228;-74
2021/12/30 07:36:22;;;;;;;3.03;1.33;;;;;;;3.78;82.67;94547.06;5008806;28;20212;-74
2021/12/30 07:38:49;;;;;;;3.10;1.55;;;;;;;3.65;81.89;94548.56;5012535;28;20204;-74
2021/12/30 07:41:16;;;;;;;1.48;0.93;;;;;;;3.72;81.80;94558.91;5012726;28;20247;-75
2021/12/30 07:43:43;;;;;;;2.38;1.20;;;;;;;3.68;81.44;94558.72;5012516;28;20528;-74
2021/12/30 07:46:11;;;;;;;3.08;1.67;;;;;;;3.66;82.61;94562.75;5012560;28;20232;-75
2021/12/30 07:48:39;;;;;;;2.28;1.60;;;;;;;3.69;82.04;94565.63;5012395;28;20209;-74
2021/12/30 07:51:06;;;;;;;4.05;1.40;;;;;;;3.77;81.05;94569.56;5012971;28;20251;-75
2021/12/30 07:53:33;;;;;;;3.03;1.92;;;;;;;3.65;81.57;94579.91;5012707;28;20215;-76
2021/12/30 07:56:01;;;;;;;4.28;1.80;;;;;;;3.69;81.20;94580.94;5011831;28;20205;-75
2021/12/30 07:58:29;;;;;;;3.85;2.15;;;;;;;3.72;82.15;94581.13;5011682;28;20205;-75
2021/12/30 08:00:55;;;;;;;4.10;2.47;;;;;;;3.80;82.30;94582.41;5012714;28;20208;-74
2021/12/30 08:03:22;;;;;;;3.17;1.90;;;;;;;3.80;81.44;94585.09;5012344;28;20694;-74
2021/12/30 08:05:51;;;;;;;2.30;1.80;;;;;;;3.89;80.68;94586.84;5012112;28;20229;-74
2021/12/30 08:08:18;;;;;;;3.30;1.60;;;;;;;3.93;79.89;94587.88;5012305;28;20212;-74
2021/12/30 08:10:45;;;;;;;2.20;1.38;;;;;;;3.85;79.87;94595.72;5012297;28;20614;-74
2021/12/30 08:13:12;;;;;;;2.90;1.73;;;;;;;3.88;80.96;94597.84;5012462;28;20278;-74
2021/12/30 08:15:39;;;;;;;1.52;1.20;;;;;;;3.80;80.50;94593.13;5012697;28;20231;-76
2021/12/30 08:18:06;;;;;;;2.00;1.40;;;;;;;3.87;81.41;94593.56;5012026;28;20221;-75
2021/12/30 08:20:32;;;;;;;2.67;1.70;;;;;;;3.97;81.09;94592.63;5011513;28;20216;-74
2021/12/30 08:23:01;;;;;;;4.18;1.55;;;;;;;3.98;80.49;94592.34;5012196;28;20205;-74
2021/12/30 08:25:28;;;;;;;0.98;0.90;;;;;;;4.02;78.19;94601.41;5011680;28;20228;-74
2021/12/30 08:27:55;;;;;;;2.28;1.50;;;;;;;3.97;80.07;94608.72;5011885;28;20193;-74
2021/12/30 08:30:23;;;;;;;2.90;1.48;;;;;;;3.95;79.22;94619.75;5012019;28;20227;-74
2021/12/30 08:32:51;;;;;;;2.85;1.13;;;;;;;3.92;79.29;94623.00;5011881;28;20585;-74
2021/12/30 08:35:20;;;;;;;2.35;1.38;;;;;;;4.01;78.12;94631.97;5011424;28;20444;-75
2021/12/30 08:37:48;;;;;;;3.28;1.63;;;;;;;3.79;78.51;94624.47;5011747;28;20216;-74
2021/12/30 08:40:17;;;;;;;2.90;1.40;;;;;;;3.80;79.78;94630.63;5011975;28;20255;-75
2021/12/30 08:42:44;;;;;;;2.35;1.55;;;;;;;3.84;79.79;94639.69;5011623;28;20236;-75
2021/12/30 08:45:11;;;;;;;2.92;1.65;;;;;;;3.97;79.27;94641.66;5011341;28;20303;-74
2021/12/30 08:47:39;;;;;;;1.77;1.15;;;;;;;3.94;78.47;94652.97;5011679;28;20270;-75
2021/12/30 08:50:09;;;;;;;7.55;2.38;;;;;;;3.84;79.03;94642.34;5010421;28;20228;-74
2021/12/30 08:52:36;;;;;;;1.65;1.15;;;;;;;3.70;79.54;94650.25;5011697;28;20208;-74
2021/12/30 08:55:05;;;;;;;4.07;2.33;;;;;;;3.70;80.07;94652.16;5011481;28;20213;-74
2021/12/30 08:57:37;;;;;;;0.95;0.85;;;;;;;3.66;79.47;94659.16;5011283;28;20205;-74
2021/12/30 09:00:05;;;;;;;3.40;1.48;;;;;;;3.77;79.32;94658.78;5010582;28;20289;-74
2021/12/30 09:02:32;;;;;;;3.30;1.45;;;;;;;3.82;79.03;94671.34;5011183;28;20205;-73
2021/12/30 09:04:59;;;;;;;3.92;2.10;;;;;;;3.88;79.02;94664.81;5010996;28;20204;-74
2021/12/30 09:07:26;;;;;;;3.35;2.05;;;;;;;4.06;79.64;94664.09;5010861;28;20197;-74
2021/12/30 09:09:53;;;;;;;4.25;2.10;;;;;;;4.41;77.44;94664.72;5011282;28;20212;-74
2021/12/30 09:12:21;;;;;;;3.50;2.22;;;;;;;4.47;76.97;94666.28;5010971;28;20718;-73
2021/12/30 09:14:49;;;;;;;3.70;2.03;;;;;;;4.52;76.15;94668.88;5011096;28;20271;-73
2021/12/30 09:17:16;;;;;;;11.07;4.10;;;;;;;4.62;77.02;94674.13;5010893;28;20228;-74
2021/12/30 09:19:43;;;;;;;10.80;4.75;;;;;;;4.46;76.48;94675.41;5010949;28;20273;-74
2021/12/30 09:22:10;;;;;;;5.05;2.80;;;;;;;4.70;76.55;94681.53;5010305;28;20204;-74
2021/12/30 09:24:37;;;;;;;4.47;2.33;;;;;;;4.70;75.00;94686.88;5010745;28;20739;-74
2021/12/30 09:27:04;;;;;;;4.93;2.72;;;;;;;4.73;75.91;94680.16;5010772;28;20239;-74
2021/12/30 09:29:31;;;;;;;5.70;2.10;;;;;;;4.97;75.36;94683.56;5010769;28;20209;-74
2021/12/30 09:31:59;;;;;;;4.00;2.35;;;;;;;4.92;74.00;94692.47;5010505;28;20652;-73
2021/12/30 09:34:26;;;;;;;3.08;1.73;;;;;;;4.88;73.00;94682.63;5010793;28;20217;-74
2021/12/30 09:36:53;;;;;;;7.90;2.15;;;;;;;5.08;72.57;94686.88;5010891;28;20296;-73
2021/12/30 09:39:20;;;;;;;2.10;1.27;;;;;;;4.82;73.60;94687.25;5010708;28;20861;-73
2021/12/30 09:41:48;;;;;;;1.95;1.13;;;;;;;4.60;73.57;94687.03;5009973;28;20607;-73
2021/12/30 09:44:17;;;;;;;1.90;1.35;;;;;;;4.62;73.55;94691.03;5009829;28;20689;-72
2021/12/30 09:46:46;;;;;;;0.70;0.70;;;;;;;4.33;74.32;94697.56;5009928;28;20255;-74
2021/12/30 09:49:18;;;;;;;0.88;0.88;;;;;;;4.01;75.32;94701.66;5010698;28;20251;-73
2021/12/30 09:51:45;;;;;;;2.05;0.98;;;;;;;3.96;76.18;94699.06;5010539;28;20275;-73
2021/12/30 09:54:13;;;;;;;1.92;1.42;;;;;;;3.96;75.82;94701.72;5009645;28;20201;-74
2021/12/30 09:56:40;;;;;;;2.30;1.40;;;;;;;3.97;76.89;94700.63;5009597;28;20204;-73
2021/12/30 09:59:07;;;;;;;0.82;0.70;;;;;;;3.81;76.72;94694.66;5009792;28;20200;-73
2021/12/30 10:01:36;;;;;;;2.58;1.33;;;;;;;3.85;76.99;94705.56;5009486;28;20461;-74
2021/12/30 10:04:04;;;;;;;2.42;1.50;;;;;;;3.92;76.57;94703.38;5010320;28;20259;-74
2021/12/30 10:06:35;;;;;;;2.47;1.10;;;;;;;3.99;76.10;94698.47;5009886;28;20229;-73
2021/12/30 10:09:10;;;;;;;2.42;1.30;;;;;;;3.95;76.92;94708.16;5010083;28;20276;-73
2021/12/30 10:11:44;;;;;;;1.35;1.20;;;;;;;3.93;76.45;94707.66;5009611;28;20268;-73
2021/12/30 10:14:12;;;;;;;1.00;0.93;;;;;;;3.89;76.84;94704.72;5009774;28;20229;-73
2021/12/30 10:16:38;;;;;;;3.63;2.30;;;;;;;4.00;77.16;94694.69;5010102;28;20196;-72
2021/12/30 10:19:06;;;;;;;8.07;4.40;;;;;;;3.97;77.57;94708.66;5010801;28;20229;-72
2021/12/30 10:21:37;;;;;;;4.20;2.17;;;;;;;4.10;77.33;94710.66;5010794;28;20228;-73
2021/12/30 10:24:06;;;;;;;3.47;2.15;;;;;;;4.43;76.60;94706.28;5009935;28;20189;-74
2021/12/30 10:26:48;;;;;;;1.98;1.40;;;;;;;4.68;75.03;94707.84;5009845;28;20229;-74
2021/12/30 10:29:15;;;;;;;2.90;1.75;;;;;;;4.64;75.37;94706.84;5010038;28;20189;-72
2021/12/30 10:31:43;;;;;;;4.28;2.08;;;;;;;4.68;75.04;94705.16;5009235;28;20713;-73
2021/12/30 10:34:12;;;;;;;2.38;1.63;;;;;;;4.72;74.37;94705.38;5009270;28;20240;-73
2021/12/30 10:36:44;;;;;;;3.22;1.40;;;;;;;4.86;74.30;94707.06;5009168;28;20639;-73
2021/12/30 10:39:20;;;;;;;2.58;1.27;;;;;;;4.68;73.61;94707.03;5009363;28;20197;-73
2021/12/30 10:41:49;;;;;;;3.95;1.80;;;;;;;4.95;74.49;94715.25;5009282;28;20239;-73
2021/12/30 10:44:17;;;;;;;3.28;1.50;;;;;;;5.03;73.90;94716.50;5009477;28;20201;-73
2021/12/30 10:46:46;;;;;;;3.90;1.73;;;;;;;5.27;73.63;94722.59;5009441;28;20750;-73
2021/12/30 10:49:21;;;;;;;3.30;1.88;;;;;;;5.38;71.88;94715.97;5008997;28;20259;-73
2021/12/30 10:51:52;;;;;;;2.08;1.40;;;;;;;4.88;72.78;94715.63;5009372;28;20459;-72
2021/12/30 10:54:21;;;;;;;4.47;1.40;;;;;;;5.07;71.85;94710.25;5009666;28;20502;-73
2021/12/30 10:56:50;;;;;;;3.30;1.90;;;;;;;5.12;72.47;94710.19;5009158;28;20240;-73
2021/12/30 10:59:26;;;;;;;4.38;2.20;;;;;;;5.13;72.31;94709.09;5009693;28;20196;-73
2021/12/30 11:01:57;;;;;;;3.78;2.03;;;;;;;5.37;72.46;94706.31;5009668;28;20200;-73
2021/12/30 11:04:33;;;;;;;2.63;1.52;;;;;;;5.67;72.28;94705.81;5009040;28;20584;-73
2021/12/30 11:07:02;;;;;;;4.47;1.77;;;;;;;5.69;71.13;94713.59;5009173;28;20469;-73
2021/12/30 11:09:29;;;;;;;3.58;2.33;;;;;;;6.16;70.32;94717.88;5009536;28;20209;-73
2021/12/30 11:11:59;;;;;;;5.50;2.00;;;;;;;6.23;68.25;94710.22;5011191;28;20208;-73
2021/12/30 11:14:29;;;;;;;4.57;2.38;;;;;;;6.16;69.57;94717.06;5015770;28;20201;-74
2021/12/30 11:17:04;;;;;;;3.35;1.85;;;;;;;6.21;68.09;94723.19;5015900;28;20197;-74
2021/12/30 11:19:35;;;;;;;2.35;1.60;;;;;;;6.03;68.83;94729.41;5015707;28;20224;-74
2021/12/30 11:22:06;;;;;;;2.58;1.73;;;;;;;5.99;69.23;94733.81;5015449;28;20216;-73
2021/12/30 11:24:34;;;;;;;3.13;1.90;;;;;;;6.39;68.57;94735.75;5015911;28;20671;-72
2021/12/30 11:27:03;;;;;;;3.78;2.00;;;;;;;6.35;69.17;94747.41;5015137;28;20810;-72
2021/12/30 11:29:31;;;;;;;3.00;1.65;;;;;;;5.78;68.91;94756.69;5015794;28;20283;-73
2021/12/30 11:31:58;;;;;;;3.35;1.40;;;;;;;5.90;69.21;94759.75;5015467;28;20208;-73
2021/12/30 11:34:26;;;;;;;2.33;1.38;;;;;;;5.70;69.81;94756.28;5014918;28;20221;-72
2021/12/30 11:36:54;;;;;;;2.03;0.98;;;;;;;5.37;69.35;94751.97;5015705;28;20205;-72
2021/12/30 11:39:24;;;;;;;4.05;1.77;;;;;;;5.52;70.60;94756.31;5015729;28;20205;-73
2021/12/30 11:41:58;;;;;;;4.40;1.80;;;;;;;5.64;70.62;94751.28;5015730;28;20233;-72
2021/12/30 11:44:42;;;;;;;2.10;1.33;;;;;;;5.65;69.63;94756.38;5016064;28;20197;-73